createdAt,value
2023-05-10T00:00:52.448Z,54.24
2023-05-10T00:01:52.432Z,55.24
2023-05-10T00:02:52.571Z,52.94
2023-05-10T00:03:52.492Z,53.85
2023-05-10T00:04:52.404Z,55.54
2023-05-10T00:05:52.383Z,55.73
2023-05-10T00:06:52.376Z,55.89
2023-05-10T00:07:52.358Z,52.82
2023-05-10T00:08:52.369Z,52.88
2023-05-10T00:09:52.397Z,52.81
2023-05-10T00:10:52.338Z,52.85
2023-05-10T00:11:52.371Z,52.78
2023-05-10T00:12:52.356Z,52.91
2023-05-10T00:13:52.316Z,52.90
2023-05-10T00:14:52.332Z,52.76
2023-05-10T00:15:52.359Z,52.76
2023-05-10T00:16:52.326Z,52.59
2023-05-10T00:17:52.346Z,53.72
2023-05-10T00:18:52.293Z,52.82
2023-05-10T00:19:52.261Z,52.69
2023-05-10T00:20:52.271Z,52.87
2023-05-10T00:21:52.307Z,52.85
2023-05-10T00:22:52.289Z,52.70
2023-05-10T00:23:52.255Z,53.54
2023-05-10T00:24:52.242Z,55.31
2023-05-10T00:25:52.254Z,55.28
2023-05-10T00:26:52.248Z,54.95
2023-05-10T00:27:52.322Z,52.60
2023-05-10T00:28:52.237Z,52.78
2023-05-10T00:29:52.231Z,53.32
2023-05-10T00:30:52.229Z,53.67
2023-05-10T00:31:52.232Z,53.62
2023-05-10T00:32:52.249Z,53.73
2023-05-10T00:33:52.412Z,53.76
2023-05-10T00:34:52.672Z,54.40
2023-05-10T00:35:52.644Z,55.72
2023-05-10T00:36:52.510Z,55.57
2023-05-10T00:37:52.154Z,55.25
2023-05-10T00:38:52.179Z,56.87
2023-05-10T00:39:52.152Z,58.51
2023-05-10T00:40:52.114Z,60.01
2023-05-10T00:41:52.111Z,60.35
2023-05-10T00:42:52.093Z,59.84
2023-05-10T00:43:52.080Z,59.30
2023-05-10T00:44:52.069Z,59.76
2023-05-10T00:45:52.147Z,59.00
2023-05-10T00:46:52.048Z,60.74
2023-05-10T00:47:52.090Z,60.84
2023-05-10T00:48:52.042Z,58.85
2023-05-10T00:49:52.064Z,58.92
2023-05-10T00:50:52.028Z,56.75
2023-05-10T00:51:52.066Z,56.86
2023-05-10T00:52:52.002Z,56.89
2023-05-10T00:53:52.017Z,57.45
2023-05-10T00:54:51.982Z,56.32
2023-05-10T00:55:52.075Z,56.44
2023-05-10T00:56:51.980Z,57.60
2023-05-10T00:57:52.021Z,57.05
2023-05-10T00:58:51.998Z,56.15
2023-05-10T00:59:51.951Z,56.04
2023-05-10T01:00:52.021Z,56.36
2023-05-10T01:01:52.013Z,55.77
2023-05-10T01:02:52.018Z,56.00
2023-05-10T01:03:51.968Z,55.43
2023-05-10T01:04:51.995Z,55.15
2023-05-10T01:05:51.926Z,55.54
2023-05-10T01:06:51.950Z,55.42
2023-05-10T01:07:51.919Z,55.58
2023-05-10T01:08:51.912Z,55.17
2023-05-10T01:09:51.978Z,56.00
2023-05-10T01:10:51.887Z,55.43
2023-05-10T01:11:51.906Z,55.26
2023-05-10T01:12:51.908Z,55.11
2023-05-10T01:13:51.858Z,54.94
2023-05-10T01:14:51.912Z,54.55
2023-05-10T01:15:51.953Z,54.56
2023-05-10T01:16:51.949Z,54.06
2023-05-10T01:17:51.888Z,54.17
2023-05-10T01:18:51.872Z,53.82
2023-05-10T01:19:51.817Z,53.86
2023-05-10T01:20:51.830Z,53.72
2023-05-10T01:21:51.870Z,53.94
2023-05-10T01:22:51.822Z,53.87
2023-05-10T01:23:51.794Z,53.97
2023-05-10T01:24:51.805Z,53.96
2023-05-10T01:25:51.775Z,54.10
2023-05-10T01:26:51.776Z,54.44
2023-05-10T01:27:51.843Z,54.33
2023-05-10T01:28:51.772Z,54.29
2023-05-10T01:30:05.101Z,54.35
2023-05-10T01:30:52.760Z,54.88
2023-05-10T01:31:51.741Z,54.29
2023-05-10T01:32:51.775Z,54.36
2023-05-10T01:33:51.821Z,54.18
2023-05-10T01:34:51.735Z,55.56
2023-05-10T01:35:51.717Z,54.36
2023-05-10T01:36:51.703Z,53.95
2023-05-10T01:37:51.698Z,53.82
2023-05-10T01:38:51.701Z,53.60
2023-05-10T01:39:51.730Z,53.50
2023-05-10T01:40:51.687Z,53.63
2023-05-10T01:41:51.668Z,54.97
2023-05-10T01:42:51.677Z,54.22
2023-05-10T01:43:51.635Z,54.15
2023-05-10T01:44:51.642Z,54.02
2023-05-10T01:45:51.691Z,55.30
2023-05-10T01:46:51.653Z,54.14
2023-05-10T01:47:51.657Z,53.59
2023-05-10T01:48:51.619Z,54.21
2023-05-10T01:49:51.614Z,53.61
2023-05-10T01:50:51.621Z,55.54
2023-05-10T01:51:51.636Z,53.98
2023-05-10T01:52:51.608Z,54.35
2023-05-10T01:53:51.888Z,54.84
2023-05-10T01:54:51.566Z,54.54
2023-05-10T01:55:51.675Z,54.51
2023-05-10T01:56:51.590Z,54.59
2023-05-10T01:57:51.624Z,53.88
2023-05-10T01:58:51.549Z,54.46
2023-05-10T01:59:51.571Z,54.25
2023-05-10T02:00:51.602Z,54.97
2023-05-10T02:01:51.542Z,55.85
2023-05-10T02:02:51.569Z,54.74
2023-05-10T02:03:51.544Z,54.41
2023-05-10T02:04:51.534Z,54.39
2023-05-10T02:05:51.507Z,54.83
2023-05-10T02:06:51.481Z,56.98
2023-05-10T02:07:51.479Z,54.55
2023-05-10T02:08:51.473Z,55.62
2023-05-10T02:09:51.510Z,56.47
2023-05-10T02:10:51.451Z,57.14
2023-05-10T02:11:51.513Z,55.62
2023-05-10T02:12:51.477Z,54.25
2023-05-10T02:13:51.424Z,54.29
2023-05-10T02:14:51.434Z,54.04
2023-05-10T02:15:51.433Z,54.26
2023-05-10T02:16:51.464Z,54.25
2023-05-10T02:17:51.458Z,55.92
2023-05-10T02:18:51.401Z,55.67
2023-05-10T02:19:51.378Z,55.48
2023-05-10T02:20:51.388Z,54.29
2023-05-10T02:21:51.417Z,54.64
2023-05-10T02:22:51.367Z,54.00
2023-05-10T02:23:51.385Z,54.88
2023-05-10T02:24:51.374Z,55.65
2023-05-10T02:25:51.349Z,55.33
2023-05-10T02:26:51.362Z,55.83
2023-05-10T02:27:51.370Z,54.09
2023-05-10T02:28:51.326Z,53.84
2023-05-10T02:29:51.294Z,53.81
2023-05-10T02:30:51.336Z,53.77
2023-05-10T02:31:51.311Z,53.95
2023-05-10T02:32:51.377Z,53.84
2023-05-10T02:33:51.770Z,53.74
2023-05-10T02:34:51.292Z,53.76
2023-05-10T02:35:51.282Z,53.98
2023-05-10T02:36:51.291Z,54.09
2023-05-10T02:37:51.259Z,56.46
2023-05-10T02:38:51.251Z,55.01
2023-05-10T02:39:51.274Z,54.42
2023-05-10T02:40:51.257Z,54.90
2023-05-10T02:41:51.266Z,54.73
2023-05-10T02:42:51.239Z,55.25
2023-05-10T02:43:51.418Z,55.29
2023-05-10T02:44:51.207Z,54.67
2023-05-10T02:45:51.274Z,55.34
2023-05-10T02:46:51.179Z,55.53
2023-05-10T02:47:51.218Z,54.65
2023-05-10T02:48:51.203Z,57.28
2023-05-10T02:49:51.196Z,55.97
2023-05-10T02:50:51.177Z,56.30
2023-05-10T02:51:51.183Z,54.70
2023-05-10T02:52:51.177Z,58.14
2023-05-10T02:53:51.139Z,56.62
2023-05-10T02:54:51.225Z,55.70
2023-05-10T02:55:51.143Z,56.80
2023-05-10T02:56:51.141Z,56.18
2023-05-10T02:57:51.174Z,55.20
2023-05-10T02:58:51.151Z,54.85
2023-05-10T02:59:51.108Z,57.63
2023-05-10T03:00:51.085Z,56.13
2023-05-10T03:01:51.173Z,56.83
2023-05-10T03:02:51.085Z,56.26
2023-05-10T03:03:51.111Z,55.90
2023-05-10T03:04:51.077Z,55.30
2023-05-10T03:05:51.080Z,54.87
2023-05-10T03:06:51.053Z,54.99
2023-05-10T03:07:51.040Z,57.28
2023-05-10T03:08:51.054Z,56.33
2023-05-10T03:09:51.115Z,55.14
2023-05-10T03:10:51.026Z,57.85
2023-05-10T03:11:51.026Z,57.05
2023-05-10T03:12:51.045Z,56.23
2023-05-10T03:13:50.997Z,56.07
2023-05-10T03:14:50.978Z,55.31
2023-05-10T03:15:51.128Z,54.82
2023-05-10T03:16:50.970Z,54.88
2023-05-10T03:17:51.057Z,55.37
2023-05-10T03:18:50.965Z,56.06
2023-05-10T03:19:50.963Z,56.52
2023-05-10T03:20:50.933Z,56.38
2023-05-10T03:21:50.988Z,55.84
2023-05-10T03:22:50.953Z,54.87
2023-05-10T03:23:50.901Z,55.02
2023-05-10T03:24:50.921Z,55.72
2023-05-10T03:25:50.906Z,56.17
2023-05-10T03:26:50.891Z,56.71
2023-05-10T03:27:50.955Z,55.89
2023-05-10T03:28:50.890Z,56.11
2023-05-10T03:29:50.877Z,56.92
2023-05-10T03:30:50.877Z,56.21
2023-05-10T03:31:50.901Z,55.72
2023-05-10T03:32:50.935Z,55.91
2023-05-10T03:33:50.879Z,55.21
2023-05-10T03:34:50.870Z,57.21
2023-05-10T03:35:50.838Z,57.18
2023-05-10T03:36:50.857Z,57.08
2023-05-10T03:37:50.841Z,57.36
2023-05-10T03:38:50.803Z,57.96
2023-05-10T03:39:50.887Z,56.84
2023-05-10T03:40:50.789Z,56.74
2023-05-10T03:41:50.780Z,58.64
2023-05-10T03:42:50.775Z,58.05
2023-05-10T03:43:50.766Z,56.84
2023-05-10T03:44:50.761Z,57.74
2023-05-10T03:45:50.795Z,58.48
2023-05-10T03:46:50.748Z,59.57
2023-05-10T03:47:50.821Z,59.60
2023-05-10T03:48:50.775Z,56.58
2023-05-10T03:49:50.738Z,56.08
2023-05-10T03:50:50.739Z,57.27
2023-05-10T03:51:50.773Z,57.74
2023-05-10T03:52:51.587Z,58.14
2023-05-10T03:53:50.729Z,57.71
2023-05-10T03:54:50.683Z,58.72
2023-05-10T03:55:50.680Z,57.40
2023-05-10T03:56:50.688Z,57.53
2023-05-10T03:57:50.744Z,59.23
2023-05-10T03:58:50.673Z,59.67
2023-05-10T03:59:50.697Z,57.66
2023-05-10T04:00:50.634Z,58.48
2023-05-10T04:01:50.722Z,59.09
2023-05-10T04:02:50.673Z,58.04
2023-05-10T04:03:50.749Z,58.24
2023-05-10T04:04:50.604Z,57.03
2023-05-10T04:05:50.615Z,60.68
2023-05-10T04:06:50.604Z,61.31
2023-05-10T04:07:50.588Z,56.83
2023-05-10T04:08:50.579Z,57.39
2023-05-10T04:09:50.609Z,58.94
2023-05-10T04:10:50.568Z,58.29
2023-05-10T04:11:50.576Z,56.90
2023-05-10T04:12:50.592Z,57.31
2023-05-10T04:13:50.546Z,57.62
2023-05-10T04:14:50.571Z,57.88
2023-05-10T04:15:50.567Z,56.61
2023-05-10T04:16:50.599Z,56.49
2023-05-10T04:17:50.530Z,57.57
2023-05-10T04:18:50.508Z,56.86
2023-05-10T04:19:50.509Z,56.57
2023-05-10T04:20:50.484Z,57.94
2023-05-10T04:21:50.528Z,58.11
2023-05-10T04:22:50.515Z,58.30
2023-05-10T04:23:50.472Z,58.48
2023-05-10T04:24:50.472Z,57.47
2023-05-10T04:25:50.475Z,56.54
2023-05-10T04:26:50.450Z,56.88
2023-05-10T04:27:50.498Z,58.67
2023-05-10T04:28:50.435Z,57.73
2023-05-10T04:29:50.420Z,58.35
2023-05-10T04:30:50.487Z,57.41
2023-05-10T04:31:50.428Z,57.39
2023-05-10T04:32:50.496Z,56.70
2023-05-10T04:33:50.452Z,56.04
2023-05-10T04:34:50.403Z,56.15
2023-05-10T04:35:50.379Z,57.04
2023-05-10T04:36:50.358Z,57.37
2023-05-10T04:37:50.360Z,60.47
2023-05-10T04:38:50.365Z,56.96
2023-05-10T04:39:50.597Z,59.36
2023-05-10T04:40:50.345Z,56.54
2023-05-10T04:41:50.331Z,58.10
2023-05-10T04:42:50.351Z,58.08
2023-05-10T04:43:50.373Z,56.84
2023-05-10T04:44:50.338Z,58.82
2023-05-10T04:45:50.389Z,61.18
2023-05-10T04:46:50.304Z,59.13
2023-05-10T04:47:50.396Z,59.82
2023-05-10T04:48:50.429Z,58.86
2023-05-10T04:49:50.307Z,61.63
2023-05-10T04:50:50.292Z,57.10
2023-05-10T04:51:50.293Z,56.57
2023-05-10T04:52:50.313Z,58.06
2023-05-10T04:54:01.726Z,56.26
2023-05-10T04:54:51.247Z,56.55
2023-05-10T04:55:50.247Z,58.33
2023-05-10T04:56:50.260Z,57.74
2023-05-10T04:57:50.291Z,59.10
2023-05-10T04:58:50.214Z,56.70
2023-05-10T04:59:50.465Z,59.80
2023-05-10T05:00:50.196Z,58.96
2023-05-10T05:01:50.238Z,58.55
2023-05-10T05:02:50.244Z,57.88
2023-05-10T05:03:50.269Z,59.26
2023-05-10T05:04:50.182Z,56.07
2023-05-10T05:05:50.174Z,57.02
2023-05-10T05:06:51.720Z,59.25
2023-05-10T05:07:50.143Z,57.82
2023-05-10T05:08:50.204Z,56.65
2023-05-10T05:09:50.187Z,55.79
2023-05-10T05:10:50.132Z,58.50
2023-05-10T05:11:50.141Z,57.96
2023-05-10T05:12:50.129Z,59.30
2023-05-10T05:13:50.148Z,58.89
2023-05-10T05:14:50.113Z,56.47
2023-05-10T05:15:50.232Z,60.03
2023-05-10T05:16:50.084Z,59.35
2023-05-10T05:17:50.106Z,58.27
2023-05-10T05:18:50.081Z,61.05
2023-05-10T05:19:50.079Z,63.12
2023-05-10T05:20:50.067Z,62.26
2023-05-10T05:21:50.085Z,60.48
2023-05-10T05:22:50.051Z,58.86
2023-05-10T05:23:50.041Z,59.37
2023-05-10T05:24:50.020Z,58.10
2023-05-10T05:25:50.034Z,59.53
2023-05-10T05:26:50.010Z,58.17
2023-05-10T05:27:51.087Z,62.01
2023-05-10T05:28:49.985Z,57.18
2023-05-10T05:29:49.998Z,57.62
2023-05-10T05:30:50.074Z,58.60
2023-05-10T05:31:49.974Z,63.04
2023-05-10T05:32:50.045Z,58.98
2023-05-10T05:33:49.997Z,58.14
2023-05-10T05:34:49.967Z,58.83
2023-05-10T05:35:49.947Z,58.19
2023-05-10T05:36:49.945Z,59.21
2023-05-10T05:37:49.991Z,59.79
2023-05-10T05:38:49.940Z,57.90
2023-05-10T05:39:49.998Z,58.52
2023-05-10T05:40:49.911Z,58.42
2023-05-10T05:41:49.914Z,60.70
2023-05-10T05:42:49.926Z,59.82
2023-05-10T05:43:49.907Z,60.38
2023-05-10T05:44:49.895Z,60.35
2023-05-10T05:45:50.286Z,59.31
2023-05-10T05:46:50.503Z,60.62
2023-05-10T05:47:49.930Z,61.07
2023-05-10T05:48:49.856Z,57.79
2023-05-10T05:49:49.834Z,59.89
2023-05-10T05:50:49.839Z,59.20
2023-05-10T05:51:49.852Z,57.90
2023-05-10T05:52:49.840Z,59.77
2023-05-10T05:53:49.822Z,59.96
2023-05-10T05:54:49.791Z,59.69
2023-05-10T05:55:49.875Z,58.41
2023-05-10T05:56:49.795Z,60.57
2023-05-10T05:57:49.823Z,60.17
2023-05-10T05:58:49.806Z,61.71
2023-05-10T05:59:49.797Z,59.08
2023-05-10T06:00:49.756Z,60.51
2023-05-10T06:01:49.802Z,59.58
2023-05-10T06:02:49.791Z,59.72
2023-05-10T06:03:51.117Z,59.69
2023-05-10T06:04:49.709Z,59.13
2023-05-10T06:05:49.748Z,59.22
2023-05-10T06:06:49.756Z,58.78
2023-05-10T06:07:49.721Z,57.40
2023-05-10T06:08:49.722Z,58.16
2023-05-10T06:09:49.763Z,60.73
2023-05-10T06:10:49.678Z,59.80
2023-05-10T06:11:49.702Z,59.10
2023-05-10T06:12:49.726Z,59.58
2023-05-10T06:13:49.663Z,59.76
2023-05-10T06:14:49.639Z,58.62
2023-05-10T06:15:49.698Z,60.18
2023-05-10T06:16:49.803Z,60.48
2023-05-10T06:17:49.622Z,61.23
2023-05-10T06:18:49.615Z,59.36
2023-05-10T06:19:49.637Z,59.28
2023-05-10T06:20:49.612Z,58.63
2023-05-10T06:21:50.408Z,58.50
2023-05-10T06:22:49.620Z,58.19
2023-05-10T06:23:49.589Z,59.21
2023-05-10T06:24:49.594Z,59.08
2023-05-10T06:25:49.594Z,59.37
2023-05-10T06:26:49.584Z,58.73
2023-05-10T06:27:52.872Z,59.69
2023-05-10T06:28:49.549Z,58.55
2023-05-10T06:29:52.260Z,59.87
2023-05-10T06:30:50.549Z,60.27
2023-05-10T06:31:50.014Z,58.89
2023-05-10T06:32:49.596Z,58.16
2023-05-10T06:33:50.592Z,56.97
2023-05-10T06:34:49.542Z,62.00
2023-05-10T06:35:49.496Z,58.31
2023-05-10T06:36:49.499Z,59.39
2023-05-10T06:37:49.515Z,60.75
2023-05-10T06:38:49.470Z,60.52
2023-05-10T06:39:49.529Z,59.33
2023-05-10T06:40:49.458Z,61.01
2023-05-10T06:41:49.472Z,60.24
2023-05-10T06:42:49.454Z,57.38
2023-05-10T06:43:49.436Z,58.32
2023-05-10T06:44:49.426Z,58.95
2023-05-10T06:45:49.488Z,57.93
2023-05-10T06:46:49.503Z,57.81
2023-05-10T06:47:49.453Z,56.40
2023-05-10T06:48:49.409Z,57.56
2023-05-10T06:49:49.394Z,59.06
2023-05-10T06:50:50.426Z,59.18
2023-05-10T06:51:49.676Z,58.37
2023-05-10T06:52:50.621Z,57.77
2023-05-10T06:53:49.434Z,57.54
2023-05-10T06:54:49.372Z,58.21
2023-05-10T06:55:49.353Z,60.46
2023-05-10T06:56:49.357Z,58.75
2023-05-10T06:57:49.378Z,59.09
2023-05-10T06:58:49.411Z,59.47
2023-05-10T06:59:49.340Z,57.70
2023-05-10T07:00:49.403Z,59.83
2023-05-10T07:01:49.375Z,60.91
2023-05-10T07:02:49.393Z,58.40
2023-05-10T07:03:49.362Z,57.07
2023-05-10T07:04:49.361Z,57.72
2023-05-10T07:05:49.338Z,57.66
2023-05-10T07:06:49.270Z,56.83
2023-05-10T07:07:49.286Z,57.15
2023-05-10T07:08:49.267Z,58.34
2023-05-10T07:09:49.297Z,59.63
2023-05-10T07:10:49.284Z,58.50
2023-05-10T07:11:49.260Z,57.02
2023-05-10T07:12:49.282Z,57.98
2023-05-10T07:13:49.251Z,59.62
2023-05-10T07:14:49.232Z,58.25
2023-05-10T07:15:49.360Z,56.40
2023-05-10T07:16:49.194Z,58.29
2023-05-10T07:17:49.337Z,58.87
2023-05-10T07:18:49.200Z,58.85
2023-05-10T07:19:49.204Z,58.21
2023-05-10T07:20:49.200Z,60.81
2023-05-10T07:21:49.197Z,58.52
2023-05-10T07:22:49.163Z,57.97
2023-05-10T07:23:49.182Z,56.95
2023-05-10T07:24:49.163Z,58.00
2023-05-10T07:25:49.211Z,59.16
2023-05-10T07:26:49.177Z,58.35
2023-05-10T07:27:49.155Z,56.36
2023-05-10T07:28:49.147Z,59.24
2023-05-10T07:29:49.136Z,60.41
2023-05-10T07:30:49.170Z,57.29
2023-05-10T07:31:49.175Z,57.93
2023-05-10T07:32:49.120Z,60.06
2023-05-10T07:33:49.168Z,58.08
2023-05-10T07:34:49.139Z,59.92
2023-05-10T07:35:49.073Z,58.42
2023-05-10T07:36:49.071Z,57.54
2023-05-10T07:37:49.090Z,57.01
2023-05-10T07:38:49.069Z,59.03
2023-05-10T07:39:49.073Z,59.31
2023-05-10T07:40:49.041Z,60.23
2023-05-10T07:41:49.028Z,60.14
2023-05-10T07:42:49.019Z,57.07
2023-05-10T07:43:49.035Z,58.36
2023-05-10T07:44:49.052Z,58.42
2023-05-10T07:45:49.098Z,58.35
2023-05-10T07:46:49.074Z,60.79
2023-05-10T07:47:49.021Z,58.42
2023-05-10T07:48:48.982Z,59.40
2023-05-10T07:49:48.986Z,56.65
2023-05-10T07:50:48.966Z,58.70
2023-05-10T07:51:49.018Z,58.62
2023-05-10T07:52:48.964Z,56.53
2023-05-10T07:53:48.979Z,59.78
2023-05-10T07:54:48.931Z,60.28
2023-05-10T07:55:48.914Z,59.45
2023-05-10T07:56:48.945Z,57.25
2023-05-10T07:57:49.349Z,58.31
2023-05-10T07:58:48.900Z,58.11
2023-05-10T07:59:48.921Z,58.21
2023-05-10T08:00:48.905Z,59.13
2023-05-10T08:01:48.921Z,58.32
2023-05-10T08:02:49.002Z,58.09
2023-05-10T08:03:48.997Z,58.53
2023-05-10T08:04:48.866Z,59.03
2023-05-10T08:05:48.828Z,59.59
2023-05-10T08:06:48.852Z,58.47
2023-05-10T08:07:48.857Z,58.90
2023-05-10T08:08:48.873Z,57.83
2023-05-10T08:09:48.882Z,59.87
2023-05-10T08:10:48.842Z,60.86
2023-05-10T08:11:48.826Z,59.28
2023-05-10T08:12:48.803Z,57.44
2023-05-10T08:13:48.799Z,58.43
2023-05-10T08:14:48.809Z,59.44
2023-05-10T08:15:48.866Z,58.48
2023-05-10T08:16:48.794Z,58.82
2023-05-10T08:17:48.843Z,58.74
2023-05-10T08:18:48.837Z,58.22
2023-05-10T08:19:48.762Z,58.81
2023-05-10T08:20:48.745Z,58.97
2023-05-10T08:21:48.764Z,57.44
2023-05-10T08:22:51.192Z,57.46
2023-05-10T08:23:48.719Z,56.50
2023-05-10T08:24:48.704Z,58.11
2023-05-10T08:25:48.715Z,59.79
2023-05-10T08:26:48.707Z,59.14
2023-05-10T08:27:48.775Z,58.72
2023-05-10T08:28:48.682Z,57.98
2023-05-10T08:29:50.389Z,57.75
2023-05-10T08:30:48.655Z,58.84
2023-05-10T08:31:48.696Z,57.77
2023-05-10T08:32:48.721Z,58.08
2023-05-10T08:33:48.688Z,59.30
2023-05-10T08:34:48.642Z,58.81
2023-05-10T08:35:48.646Z,58.95
2023-05-10T08:36:48.629Z,58.56
2023-05-10T08:37:48.590Z,57.82
2023-05-10T08:38:50.256Z,58.20
2023-05-10T08:39:48.643Z,57.88
2023-05-10T08:40:48.589Z,57.04
2023-05-10T08:41:48.594Z,59.22
2023-05-10T08:42:48.553Z,58.60
2023-05-10T08:43:48.560Z,58.18
2023-05-10T08:44:49.545Z,56.58
2023-05-10T08:45:48.582Z,58.08
2023-05-10T08:46:48.646Z,55.92
2023-05-10T08:47:48.595Z,57.76
2023-05-10T08:48:48.502Z,58.72
2023-05-10T08:49:48.548Z,58.47
2023-05-10T08:50:48.511Z,58.06
2023-05-10T08:51:48.587Z,55.94
2023-05-10T08:52:48.496Z,58.37
2023-05-10T08:53:48.496Z,57.95
2023-05-10T08:54:48.489Z,58.59
2023-05-10T08:55:48.479Z,58.95
2023-05-10T08:56:49.709Z,57.84
2023-05-10T08:57:48.520Z,56.99
2023-05-10T08:58:48.463Z,57.65
2023-05-10T08:59:48.466Z,55.09
2023-05-10T09:00:48.454Z,56.24
2023-05-10T09:01:48.425Z,58.16
2023-05-10T09:02:48.480Z,55.01
2023-05-10T09:03:48.522Z,56.87
2023-05-10T09:04:48.451Z,56.06
2023-05-10T09:05:48.398Z,57.33
2023-05-10T09:06:48.399Z,56.56
2023-05-10T09:07:48.389Z,56.14
2023-05-10T09:08:48.375Z,56.52
2023-05-10T09:09:48.441Z,56.83
2023-05-10T09:10:48.355Z,56.74
2023-05-10T09:11:48.356Z,55.63
2023-05-10T09:12:48.335Z,56.74
2023-05-10T09:13:48.340Z,55.58
2023-05-10T09:14:48.336Z,54.69
2023-05-10T09:15:48.372Z,56.73
2023-05-10T09:16:48.355Z,58.87
2023-05-10T09:17:48.394Z,58.01
2023-05-10T09:18:48.332Z,56.61
2023-05-10T09:19:48.296Z,57.61
2023-05-10T09:20:48.307Z,55.02
2023-05-10T09:21:48.324Z,58.53
2023-05-10T09:22:48.304Z,57.21
2023-05-10T09:23:48.808Z,57.49
2023-05-10T09:24:48.388Z,58.66
2023-05-10T09:25:48.257Z,57.43
2023-05-10T09:26:48.270Z,58.79
2023-05-10T09:27:48.308Z,56.86
2023-05-10T09:28:48.224Z,55.70
2023-05-10T09:29:48.228Z,54.70
2023-05-10T09:30:48.321Z,58.93
2023-05-10T09:31:48.225Z,54.98
2023-05-10T09:32:48.198Z,55.37
2023-05-10T09:33:48.225Z,56.33
2023-05-10T09:34:48.164Z,56.49
2023-05-10T09:35:48.208Z,56.03
2023-05-10T09:36:48.195Z,56.10
2023-05-10T09:37:48.197Z,56.00
2023-05-10T09:38:48.166Z,57.32
2023-05-10T09:39:48.229Z,58.12
2023-05-10T09:40:48.154Z,57.25
2023-05-10T09:41:48.120Z,59.89
2023-05-10T09:42:48.113Z,59.51
2023-05-10T09:43:48.114Z,56.52
2023-05-10T09:44:48.186Z,56.35
2023-05-10T09:45:48.204Z,55.27
2023-05-10T09:46:48.100Z,56.92
2023-05-10T09:47:48.216Z,56.86
2023-05-10T09:48:48.133Z,58.49
2023-05-10T09:49:48.066Z,57.92
2023-05-10T09:50:48.100Z,57.41
2023-05-10T09:51:48.086Z,57.90
2023-05-10T09:52:48.034Z,59.03
2023-05-10T09:53:48.077Z,57.26
2023-05-10T09:54:48.049Z,58.97
2023-05-10T09:55:48.032Z,58.86
2023-05-10T09:56:48.034Z,60.32
2023-05-10T09:57:48.067Z,60.43
2023-05-10T09:58:48.016Z,60.23
2023-05-10T09:59:47.995Z,60.03
2023-05-10T10:00:48.007Z,59.11
2023-05-10T10:01:48.097Z,59.71
2023-05-10T10:02:48.045Z,60.90
2023-05-10T10:03:48.017Z,61.25
2023-05-10T10:04:47.976Z,64.91
2023-05-10T10:05:47.964Z,71.62
2023-05-10T10:06:48.031Z,69.47
2023-05-10T10:07:47.965Z,67.05
2023-05-10T10:08:48.000Z,64.74
2023-05-10T10:09:48.175Z,62.26
2023-05-10T10:10:47.964Z,62.61
2023-05-10T10:11:47.928Z,61.42
2023-05-10T10:12:49.052Z,61.60
2023-05-10T10:13:48.008Z,64.31
2023-05-10T10:14:48.641Z,63.73
2023-05-10T10:15:48.045Z,63.80
2023-05-10T10:16:59.922Z,65.06
2023-05-10T10:17:48.896Z,62.94
2023-05-10T10:18:49.005Z,61.40
2023-05-10T10:19:47.858Z,60.12
2023-05-10T10:20:47.875Z,60.82
2023-05-10T10:21:47.870Z,60.56
2023-05-10T10:22:47.872Z,61.21
2023-05-10T10:23:47.816Z,59.02
2023-05-10T10:24:47.915Z,57.82
2023-05-10T10:25:47.902Z,57.64
2023-05-10T10:26:47.880Z,55.98
2023-05-10T10:27:47.967Z,60.34
2023-05-10T10:28:47.826Z,58.53
2023-05-10T10:29:47.820Z,60.06
2023-05-10T10:30:47.777Z,59.82
2023-05-10T10:31:47.904Z,57.48
2023-05-10T10:32:47.899Z,57.59
2023-05-10T10:33:48.406Z,58.58
2023-05-10T10:34:47.748Z,58.35
2023-05-10T10:35:47.786Z,56.70
2023-05-10T10:36:47.771Z,54.61
2023-05-10T10:37:47.784Z,57.10
2023-05-10T10:38:47.865Z,58.49
2023-05-10T10:39:47.777Z,59.43
2023-05-10T10:40:47.807Z,57.53
2023-05-10T10:41:47.918Z,55.82
2023-05-10T10:42:47.822Z,58.18
2023-05-10T10:43:47.719Z,58.35
2023-05-10T10:44:47.684Z,57.23
2023-05-10T10:45:47.791Z,56.99
2023-05-10T10:46:47.678Z,59.77
2023-05-10T10:47:47.799Z,59.04
2023-05-10T10:48:47.635Z,55.47
2023-05-10T10:49:47.689Z,57.72
2023-05-10T10:50:47.828Z,56.57
2023-05-10T10:51:47.748Z,58.30
2023-05-10T10:52:47.653Z,56.00
2023-05-10T10:53:47.638Z,55.30
2023-05-10T10:54:47.629Z,56.61
2023-05-10T10:55:47.600Z,56.65
2023-05-10T10:56:47.613Z,57.33
2023-05-10T10:57:47.687Z,55.91
2023-05-10T10:58:47.578Z,57.41
2023-05-10T10:59:47.635Z,58.76
2023-05-10T11:00:47.598Z,59.28
2023-05-10T11:01:47.561Z,57.25
2023-05-10T11:02:47.591Z,57.07
2023-05-10T11:03:47.610Z,59.30
2023-05-10T11:04:47.709Z,58.90
2023-05-10T11:05:47.612Z,57.35
2023-05-10T11:06:47.519Z,59.18
2023-05-10T11:07:47.490Z,58.33
2023-05-10T11:08:47.519Z,60.07
2023-05-10T11:09:48.123Z,57.46
2023-05-10T11:10:47.520Z,60.01
2023-05-10T11:11:47.517Z,63.99
2023-05-10T11:12:47.477Z,68.17
2023-05-10T11:13:50.037Z,69.21
2023-05-10T11:14:47.533Z,68.11
2023-05-10T11:15:47.519Z,70.64
2023-05-10T11:16:47.478Z,68.06
2023-05-10T11:17:51.142Z,64.46
2023-05-10T11:18:49.159Z,64.01
2023-05-10T11:19:47.521Z,62.01
2023-05-10T11:20:47.510Z,62.30
2023-05-10T11:21:49.642Z,61.04
2023-05-10T11:22:48.193Z,60.30
2023-05-10T11:23:47.523Z,59.93
2023-05-10T11:24:49.624Z,58.99
2023-05-10T11:25:47.559Z,58.34
2023-05-10T11:26:47.427Z,60.13
2023-05-10T11:27:48.518Z,59.79
2023-05-10T11:28:47.457Z,58.06
2023-05-10T11:29:47.423Z,56.95
2023-05-10T11:30:47.444Z,59.18
2023-05-10T11:31:47.337Z,59.43
2023-05-10T11:32:47.456Z,60.20
2023-05-10T11:33:47.478Z,60.81
2023-05-10T11:34:47.313Z,59.03
2023-05-10T11:35:47.344Z,60.10
2023-05-10T11:36:48.428Z,58.19
2023-05-10T11:37:47.389Z,57.62
2023-05-10T11:38:47.405Z,58.62
2023-05-10T11:39:47.464Z,58.04
2023-05-10T11:40:47.345Z,58.20
2023-05-10T11:41:47.354Z,58.47
2023-05-10T11:42:47.275Z,58.82
2023-05-10T11:43:47.348Z,57.80
2023-05-10T11:44:47.307Z,59.52
2023-05-10T11:45:47.378Z,59.98
2023-05-10T11:46:47.328Z,59.54
2023-05-10T11:47:47.309Z,59.36
2023-05-10T11:48:47.229Z,58.42
2023-05-10T11:49:47.230Z,61.72
2023-05-10T11:50:47.280Z,60.67
2023-05-10T11:51:47.300Z,59.89
2023-05-10T11:52:47.277Z,57.95
2023-05-10T11:53:47.198Z,58.99
2023-05-10T11:54:47.188Z,59.27
2023-05-10T11:55:47.157Z,58.31
2023-05-10T11:56:47.222Z,61.86
2023-05-10T11:57:47.209Z,58.12
2023-05-10T11:58:47.137Z,57.11
2023-05-10T11:59:47.137Z,58.39
2023-05-10T12:00:47.158Z,58.68
2023-05-10T12:01:47.149Z,59.07
2023-05-10T12:02:47.355Z,58.78
2023-05-10T12:03:47.245Z,59.28
2023-05-10T12:04:47.167Z,59.45
2023-05-10T12:05:47.105Z,58.47
2023-05-10T12:06:47.106Z,58.82
2023-05-10T12:07:47.120Z,58.53
2023-05-10T12:08:47.119Z,55.52
2023-05-10T12:09:47.211Z,57.08
2023-05-10T12:10:47.114Z,59.22
2023-05-10T12:11:47.077Z,59.41
2023-05-10T12:12:47.053Z,56.73
2023-05-10T12:13:47.043Z,57.84
2023-05-10T12:14:47.042Z,58.01
2023-05-10T12:15:47.151Z,57.62
2023-05-10T12:16:48.251Z,57.58
2023-05-10T12:17:47.126Z,57.75
2023-05-10T12:18:47.123Z,57.37
2023-05-10T12:19:47.093Z,58.49
2023-05-10T12:20:47.031Z,58.33
2023-05-10T12:21:47.094Z,58.25
2023-05-10T12:22:47.018Z,57.49
2023-05-10T12:23:47.037Z,59.45
2023-05-10T12:24:47.019Z,56.98
2023-05-10T12:25:47.037Z,56.50
2023-05-10T12:26:48.055Z,57.32
2023-05-10T12:27:47.050Z,57.72
2023-05-10T12:28:46.996Z,57.49
2023-05-10T12:29:46.966Z,57.15
2023-05-10T12:30:46.932Z,57.69
2023-05-10T12:31:47.027Z,59.62
2023-05-10T12:32:46.946Z,59.09
2023-05-10T12:33:46.973Z,56.95
2023-05-10T12:34:46.929Z,58.33
2023-05-10T12:35:46.948Z,56.08
2023-05-10T12:36:46.854Z,57.99
2023-05-10T12:37:46.875Z,59.05
2023-05-10T12:38:46.909Z,58.38
2023-05-10T12:39:46.898Z,58.94
2023-05-10T12:40:46.886Z,58.48
2023-05-10T12:41:46.919Z,59.57
2023-05-10T12:42:46.910Z,57.98
2023-05-10T12:43:46.904Z,59.38
2023-05-10T12:44:46.796Z,58.28
2023-05-10T12:45:46.876Z,57.45
2023-05-10T12:46:46.816Z,57.65
2023-05-10T12:47:46.835Z,59.09
2023-05-10T12:48:46.798Z,57.84
2023-05-10T12:49:46.787Z,59.22
2023-05-10T12:50:46.736Z,58.46
2023-05-10T12:51:46.948Z,58.44
2023-05-10T12:52:46.760Z,56.90